Time;durP1;ratioP1;P1;durP2;ratioP2;P2;SDS_P1;SDS_P2;PMS_P1;PMS_P2;Temp;Humidity;BMP_temperature;BMP_pressure;BME280_temperature;BME280_humidity;BME280_pressure;Samples;Min_cycle;Max_cycle;Signal;HPM_P1;HPM_P2
2023/01/27 00:02:09;;;;;;;1.08;0.22;;;;;;;5.02;90.93;102725.72;5036073;28;97989;-28
2023/01/27 00:04:34;;;;;;;0.00;0.00;;;;;;;5.03;91.18;102732.88;5036039;28;97299;-28
2023/01/27 00:06:59;;;;;;;3.70;0.73;;;;;;;5.04;91.21;102723.91;5036378;27;96470;-29
2023/01/27 00:09:24;;;;;;;0.17;0.17;;;;;;;5.06;90.64;102730.16;5036631;27;96528;-29
2023/01/27 00:14:34;;;;;;;0.20;0.20;;;;;;;5.09;91.00;102723.88;5036156;28;96989;-29
2023/01/27 00:16:59;;;;;;;0.30;0.10;;;;;;;5.10;90.56;102728.31;5035681;27;96690;-28
2023/01/27 00:19:25;;;;;;;6.63;0.52;;;;;;;5.08;90.53;102722.09;5035991;27;96858;-28
2023/01/27 00:24:35;;;;;;;0.80;0.47;;;;;;;5.16;90.42;102722.03;5035079;28;96971;-28
2023/01/27 00:27:01;;;;;;;1.15;0.40;;;;;;;5.14;90.53;102721.16;5035895;27;96621;-29
2023/01/27 00:29:26;;;;;;;0.10;0.10;;;;;;;5.14;90.53;102705.91;5034437;28;96781;-28
2023/01/27 00:34:38;;;;;;;3.28;0.35;;;;;;;5.17;90.54;102710.38;5036068;28;96991;-28
2023/01/27 00:37:03;;;;;;;0.88;0.57;;;;;;;5.15;90.57;102712.16;5034350;28;96829;-28
2023/01/27 00:39:28;;;;;;;0.65;0.40;;;;;;;5.16;90.66;102720.22;5035675;27;96713;-30
2023/01/27 00:41:54;;;;;;;2.00;0.15;;;;;;;5.17;90.47;102713.06;5034695;28;106147;-29
2023/01/27 00:44:19;;;;;;;6.65;0.47;;;;;;;5.15;90.01;102717.53;5035278;28;99372;-28
2023/01/27 00:46:44;;;;;;;1.55;0.10;;;;;;;5.17;89.74;102721.13;5035767;28;96707;-28
2023/01/27 00:49:12;;;;;;;1.38;0.30;;;;;;;5.20;89.76;102722.00;5035691;27;96791;-28
2023/01/27 00:51:37;;;;;;;5.35;0.60;;;;;;;5.20;89.56;102716.63;5035412;27;97875;-28
2023/01/27 00:54:03;;;;;;;0.05;0.05;;;;;;;5.19;90.02;102719.31;5034600;28;99589;-28
2023/01/27 00:56:29;;;;;;;1.27;0.22;;;;;;;5.20;89.91;102719.31;5034207;28;96533;-28
2023/01/27 00:58:54;;;;;;;0.45;0.20;;;;;;;5.18;89.70;102717.53;5035165;27;96926;-28
2023/01/27 01:01:20;;;;;;;2.00;0.25;;;;;;;5.19;89.82;102724.69;5035288;27;97223;-29
2023/01/27 01:03:45;;;;;;;3.13;0.20;;;;;;;5.17;89.82;102711.25;5035311;28;97329;-28
2023/01/27 01:06:13;;;;;;;1.85;0.20;;;;;;;5.18;90.03;102725.59;5035010;28;96706;-28
2023/01/27 01:08:39;;;;;;;0.10;0.10;;;;;;;5.17;90.02;102722.00;5033557;28;96867;-27
2023/01/27 01:11:07;;;;;;;0.20;0.20;;;;;;;5.18;90.16;102726.47;5035144;28;97844;-28
2023/01/27 01:13:32;;;;;;;0.85;0.10;;;;;;;5.17;90.14;102724.69;5033429;28;101214;-28
2023/01/27 01:16:06;;;;;;;0.63;0.30;;;;;;;5.17;90.10;102726.47;5035299;28;96697;-28
2023/01/27 01:18:32;;;;;;;1.17;0.38;;;;;;;5.11;90.28;102722.94;5033848;28;96663;-28
2023/01/27 01:20:58;;;;;;;0.35;0.20;;;;;;;5.14;90.17;102723.84;5033232;28;101145;-28
2023/01/27 01:23:23;;;;;;;0.47;0.25;;;;;;;5.07;90.36;102723.00;5034795;28;98870;-29
2023/01/27 01:25:56;;;;;;;2.00;0.17;;;;;;;5.10;89.88;102726.56;5035043;27;96787;-28
2023/01/27 01:28:23;;;;;;;0.93;0.60;;;;;;;5.08;90.24;102725.69;5033609;28;96905;-28
2023/01/27 01:30:48;;;;;;;0.22;0.15;;;;;;;5.07;89.90;102737.31;5032629;28;101042;-28
2023/01/27 01:33:14;;;;;;;1.85;0.57;;;;;;;5.05;89.85;102733.78;5034735;28;97769;-28
2023/01/27 01:35:40;;;;;;;2.67;0.63;;;;;;;5.06;90.12;102726.59;5033155;28;96669;-29
2023/01/27 01:38:05;;;;;;;0.25;0.10;;;;;;;5.03;89.98;102732.88;5034967;27;96634;-28
2023/01/27 01:40:31;;;;;;;1.92;0.32;;;;;;;5.06;89.92;102743.59;5034602;27;97458;-29
2023/01/27 01:43:02;;;;;;;0.10;0.10;;;;;;;5.03;89.73;102740.94;5034546;28;97373;-29
2023/01/27 01:45:48;;;;;;;0.10;0.10;;;;;;;5.02;90.16;102743.63;5033455;28;96757;-28
2023/01/27 01:48:26;;;;;;;0.32;0.30;;;;;;;5.01;90.03;102747.22;5033438;28;96792;-28
2023/01/27 01:51:07;;;;;;;0.20;0.20;;;;;;;4.98;89.77;102750.84;5032928;28;100856;-29
2023/01/27 01:53:39;;;;;;;0.17;0.17;;;;;;;4.96;89.38;102751.72;5034197;28;97893;-30
2023/01/27 01:56:10;;;;;;;1.08;0.55;;;;;;;4.94;89.62;102746.38;5032864;28;96617;-30
2023/01/27 01:58:37;;;;;;;0.22;0.22;;;;;;;4.88;89.53;102749.97;5033023;28;96739;-28
2023/01/27 02:01:04;;;;;;;0.17;0.17;;;;;;;4.90;89.68;102744.59;5032967;28;101359;-28
2023/01/27 02:03:32;;;;;;;1.95;0.43;;;;;;;4.91;89.51;102751.78;5034203;28;97286;-30
2023/01/27 02:05:59;;;;;;;0.68;0.40;;;;;;;4.88;89.35;102743.72;5033207;28;96662;-28
2023/01/27 02:08:38;;;;;;;0.55;0.38;;;;;;;4.90;89.42;102744.59;5034879;27;96758;-29
2023/01/27 02:11:05;;;;;;;1.23;0.40;;;;;;;4.85;89.54;102746.44;5037710;27;98043;-28
2023/01/27 02:13:30;;;;;;;0.52;0.50;;;;;;;4.81;89.83;102744.66;5036614;28;100911;-28
2023/01/27 02:15:55;;;;;;;0.57;0.47;;;;;;;4.75;89.05;102751.00;5038154;27;96510;-28
2023/01/27 02:18:21;;;;;;;0.75;0.32;;;;;;;4.75;89.51;102748.31;5038104;27;96852;-28
2023/01/27 02:20:50;;;;;;;1.33;0.60;;;;;;;4.73;89.36;102747.41;5037144;27;97882;-30
2023/01/27 02:23:43;;;;;;;0.28;0.28;;;;;;;4.73;88.94;102746.53;5037005;28;100849;-28
2023/01/27 02:26:35;;;;;;;1.27;0.50;;;;;;;4.69;88.97;102745.66;5037963;27;96716;-29
2023/01/27 02:29:07;;;;;;;0.70;0.50;;;;;;;4.71;89.07;102749.22;5036423;28;96689;-28
2023/01/27 02:31:32;;;;;;;2.08;0.40;;;;;;;4.70;89.17;102750.13;5037385;27;97430;-28
2023/01/27 02:34:07;;;;;;;1.75;0.95;;;;;;;4.64;89.14;102748.34;5037406;28;97736;-28
2023/01/27 02:36:38;;;;;;;2.28;0.68;;;;;;;4.62;88.84;102751.94;5036236;28;96898;-29
2023/01/27 02:39:07;;;;;;;2.77;0.87;;;;;;;4.61;88.74;102764.47;5036866;28;96818;-27
2023/01/27 02:41:44;;;;;;;0.22;0.22;;;;;;;4.61;88.48;102750.19;5035822;28;101369;-28
2023/01/27 02:44:11;;;;;;;3.83;1.15;;;;;;;4.61;88.42;102752.88;5035849;28;100785;-28
2023/01/27 02:46:37;;;;;;;1.15;0.75;;;;;;;4.57;88.84;102751.97;5035502;28;96657;-28
2023/01/27 02:49:02;;;;;;;1.15;0.82;;;;;;;4.60;88.67;102761.81;5037414;27;96792;-29
2023/01/27 02:51:28;;;;;;;5.88;0.75;;;;;;;4.57;88.82;102762.72;5037201;27;97868;-28
2023/01/27 02:53:53;;;;;;;1.20;0.68;;;;;;;4.53;88.77;102754.69;5036817;28;98776;-29
2023/01/27 02:56:19;;;;;;;2.63;1.08;;;;;;;4.54;88.77;102764.53;5037486;27;96702;-28
2023/01/27 02:58:44;;;;;;;1.40;0.70;;;;;;;4.54;88.54;102761.84;5037212;27;96809;-28
2023/01/27 03:01:10;;;;;;;2.55;0.90;;;;;;;4.50;88.43;102769.00;5036799;27;99598;-28
2023/01/27 03:03:35;;;;;;;2.67;1.23;;;;;;;4.51;88.57;102778.88;5037314;28;97810;-28
2023/01/27 03:06:00;;;;;;;1.15;0.90;;;;;;;4.45;88.21;102766.34;5037393;27;96450;-28
2023/01/27 03:08:26;;;;;;;1.77;0.57;;;;;;;4.44;88.29;102767.25;5037439;28;96821;-28
2023/01/27 03:10:53;;;;;;;0.88;0.73;;;;;;;4.47;87.96;102777.97;5036407;27;97869;-28
2023/01/27 03:13:22;;;;;;;2.28;1.17;;;;;;;4.45;88.38;102763.66;5035219;28;100762;-27
2023/01/27 03:18:32;;;;;;;1.58;0.80;;;;;;;4.47;88.55;102777.09;5037344;28;96492;-29
2023/01/27 03:21:03;;;;;;;1.55;1.05;;;;;;;4.45;88.24;102771.72;5036192;28;97436;-29
2023/01/27 03:23:33;;;;;;;2.30;0.90;;;;;;;4.41;88.47;102771.75;5034925;28;103186;-28
2023/01/27 03:25:58;;;;;;;1.15;0.75;;;;;;;4.44;88.88;102772.63;5036675;27;96447;-29
2023/01/27 03:28:23;;;;;;;0.85;0.73;;;;;;;4.45;88.98;102779.75;5037516;27;96895;-30
2023/01/27 03:30:49;;;;;;;4.30;1.20;;;;;;;4.41;88.99;102786.06;5036439;27;99333;-29
2023/01/27 03:33:14;;;;;;;2.83;1.70;;;;;;;4.36;88.80;102779.84;5036595;28;97765;-30
2023/01/27 03:35:47;;;;;;;3.53;1.27;;;;;;;4.37;88.92;102796.81;5036090;27;96465;-30
2023/01/27 03:46:26;;;;;;;1.15;1.00;;;;;;;4.34;88.55;102783.41;5036851;28;96597;-29
2023/01/27 03:48:53;;;;;;;4.13;1.40;;;;;;;4.34;88.58;102786.06;5035111;28;96862;-28
2023/01/27 03:51:21;;;;;;;3.85;1.10;;;;;;;4.32;88.96;102793.28;5034572;28;100817;-28
2023/01/27 03:53:47;;;;;;;10.82;1.75;;;;;;;4.31;88.66;102796.84;5034856;28;100880;-28
2023/01/27 03:56:14;;;;;;;5.43;1.48;;;;;;;4.30;88.89;102792.38;5036823;27;96561;-28
2023/01/27 03:58:39;;;;;;;2.75;1.33;;;;;;;4.29;88.67;102798.63;5036243;27;96824;-28
2023/01/27 04:01:20;;;;;;;0.68;0.65;;;;;;;4.26;88.89;102800.41;5034126;28;100937;-28
2023/01/27 04:09:26;;;;;;;1.33;0.93;;;;;;;4.25;89.00;102806.69;5036537;28;96638;-28
2023/01/27 04:11:57;;;;;;;1.58;1.02;;;;;;;4.23;89.31;102811.16;5034477;28;101014;-28
2023/01/27 04:14:26;;;;;;;1.83;0.85;;;;;;;4.19;89.00;102812.06;5036108;28;97439;-28
2023/01/27 04:16:53;;;;;;;2.63;0.95;;;;;;;4.16;89.42;102816.56;5034685;28;96736;-29
2023/01/27 04:19:19;;;;;;;2.60;1.48;;;;;;;4.17;88.97;102816.56;5035035;28;96905;-28
2023/01/27 04:21:45;;;;;;;3.80;1.00;;;;;;;4.15;89.36;102823.72;5034274;28;100991;-28
2023/01/27 04:24:22;;;;;;;2.20;1.20;;;;;;;4.19;89.14;102827.28;5033322;28;100878;-28
2023/01/27 04:27:00;;;;;;;2.25;1.52;;;;;;;4.18;89.40;102829.06;5035301;27;96783;-28
2023/01/27 04:29:27;;;;;;;2.05;1.45;;;;;;;4.15;89.10;102833.56;5034468;28;96743;-28
2023/01/27 04:31:53;;;;;;;2.85;1.73;;;;;;;4.13;88.96;102841.59;5033339;28;100773;-28
2023/01/27 04:34:19;;;;;;;2.45;1.77;;;;;;;4.11;89.28;102838.03;5033620;28;101099;-28
2023/01/27 04:36:46;;;;;;;3.53;2.03;;;;;;;4.08;89.02;102843.41;5035639;27;96466;-28
2023/01/27 04:39:11;;;;;;;3.22;1.90;;;;;;;4.08;89.05;102847.88;5034282;28;96818;-28
2023/01/27 04:41:37;;;;;;;5.95;2.03;;;;;;;4.03;88.48;102854.13;5035612;27;97861;-28
2023/01/27 04:44:04;;;;;;;2.00;1.38;;;;;;;4.02;88.82;102856.81;5035747;28;97769;-28
2023/01/27 04:46:29;;;;;;;3.38;2.40;;;;;;;3.98;88.25;102857.72;5034339;28;96647;-28
2023/01/27 04:48:55;;;;;;;1.85;1.48;;;;;;;3.96;88.42;102844.31;5035765;27;96734;-29
2023/01/27 04:51:20;;;;;;;4.05;1.90;;;;;;;3.94;88.36;102861.31;5034640;27;98783;-30
2023/01/27 04:53:46;;;;;;;3.65;1.83;;;;;;;3.93;88.35;102857.75;5034867;28;97866;-28
2023/01/27 04:56:21;;;;;;;4.00;1.77;;;;;;;3.93;88.62;102859.50;5035323;27;96595;-28
2023/01/27 04:58:47;;;;;;;2.35;1.75;;;;;;;3.93;88.33;102865.78;5035489;27;96643;-29
2023/01/27 05:01:12;;;;;;;1.88;1.38;;;;;;;3.91;88.52;102872.00;5034950;27;99477;-29
2023/01/27 05:03:37;;;;;;;3.08;1.17;;;;;;;3.90;88.62;102859.53;5035182;28;100662;-28
2023/01/27 05:06:03;;;;;;;1.30;1.08;;;;;;;3.89;88.36;102861.31;5035254;27;96517;-30
2023/01/27 05:08:29;;;;;;;1.67;0.60;;;;;;;3.84;87.96;102863.13;5035551;27;96821;-28
2023/01/27 05:10:55;;;;;;;1.50;1.10;;;;;;;3.86;87.95;102866.66;5033446;28;100510;-28
2023/01/27 05:13:20;;;;;;;1.02;0.63;;;;;;;3.87;87.53;102859.53;5034884;28;97809;-28
2023/01/27 05:15:46;;;;;;;0.88;0.77;;;;;;;3.86;87.49;102865.78;5034809;27;96439;-28
2023/01/27 05:18:12;;;;;;;1.55;0.98;;;;;;;3.87;87.92;102865.78;5033733;28;96850;-28
2023/01/27 05:20:37;;;;;;;0.25;0.25;;;;;;;3.83;87.45;102864.88;5034388;27;98876;-28
2023/01/27 05:25:46;;;;;;;1.35;0.93;;;;;;;3.87;87.42;102863.09;5034074;28;96882;-28
2023/01/27 05:28:12;;;;;;;0.80;0.70;;;;;;;3.90;87.57;102868.44;5034893;27;96868;-28
2023/01/27 05:30:37;;;;;;;1.00;0.70;;;;;;;3.91;87.37;102861.28;5034483;27;99190;-28
2023/01/27 05:33:03;;;;;;;1.35;1.02;;;;;;;3.90;87.52;102873.81;5035136;28;97773;-28
2023/01/27 05:35:32;;;;;;;1.20;0.85;;;;;;;3.88;87.27;102866.66;5034879;28;96574;-28
2023/01/27 05:37:57;;;;;;;1.77;1.10;;;;;;;3.89;87.11;102868.47;5033628;28;96783;-28
2023/01/27 05:40:23;;;;;;;0.70;0.47;;;;;;;3.87;87.06;102865.78;5033887;27;99105;-28
2023/01/27 05:42:50;;;;;;;0.65;0.63;;;;;;;3.87;87.43;102868.47;5034562;28;97249;-28
2023/01/27 05:45:16;;;;;;;0.60;0.50;;;;;;;3.91;87.00;102874.69;5032836;28;96595;-28
2023/01/27 05:47:41;;;;;;;4.60;2.08;;;;;;;3.89;86.89;102871.16;5034681;27;96817;-28
2023/01/27 05:50:07;;;;;;;1.08;0.93;;;;;;;3.87;86.36;102878.28;5034150;27;98923;-28
2023/01/27 05:52:32;;;;;;;0.32;0.32;;;;;;;3.85;86.76;102872.03;5032877;28;102401;-28
2023/01/27 05:54:58;;;;;;;1.23;0.85;;;;;;;3.87;87.05;102881.88;5034510;28;96813;-28
2023/01/27 05:57:23;;;;;;;3.10;1.38;;;;;;;3.87;86.39;102873.81;5035010;27;96858;-29
2023/01/27 05:59:48;;;;;;;2.78;1.50;;;;;;;3.91;86.26;102883.66;5033954;27;104394;-28
2023/01/27 06:02:14;;;;;;;1.73;1.50;;;;;;;3.90;86.21;102887.22;5034051;28;98275;-28
2023/01/27 06:04:39;;;;;;;0.85;0.73;;;;;;;3.90;86.13;102892.56;5034158;28;96420;-28
2023/01/27 06:07:05;;;;;;;0.73;0.52;;;;;;;3.89;86.06;102885.44;5034795;27;96902;-28
2023/01/27 06:09:30;;;;;;;1.40;1.00;;;;;;;3.89;86.19;102882.75;5034267;27;97972;-28
2023/01/27 06:11:55;;;;;;;0.50;0.50;;;;;;;3.88;85.98;102888.13;5034236;28;97833;-28
2023/01/27 06:14:20;;;;;;;1.45;1.23;;;;;;;3.93;85.47;102891.69;5034467;28;96554;-29
2023/01/27 06:16:46;;;;;;;1.83;1.30;;;;;;;3.93;85.30;102891.69;5034456;27;96698;-28
2023/01/27 06:19:11;;;;;;;1.17;0.70;;;;;;;3.94;85.36;102888.13;5033633;28;99369;-29
2023/01/27 06:21:37;;;;;;;1.20;0.82;;;;;;;3.96;85.40;102897.06;5034607;28;97819;-28
2023/01/27 06:24:03;;;;;;;0.75;0.60;;;;;;;3.95;85.49;102889.88;5033894;27;96776;-29
2023/01/27 06:26:28;;;;;;;1.10;0.50;;;;;;;3.92;86.02;102879.19;5033054;28;96741;-28
2023/01/27 06:28:56;;;;;;;1.45;0.68;;;;;;;3.93;85.21;102892.59;5033674;27;97468;-28
2023/01/27 06:31:21;;;;;;;0.50;0.50;;;;;;;3.93;85.10;102891.69;5032300;28;101081;-30
2023/01/27 06:33:47;;;;;;;0.20;0.20;;;;;;;3.97;85.28;102896.16;5034054;28;96621;-28
2023/01/27 06:36:15;;;;;;;0.32;0.28;;;;;;;4.00;85.34;102893.47;5034735;27;96784;-28
2023/01/27 06:38:40;;;;;;;0.43;0.30;;;;;;;3.97;85.64;102894.34;5032437;28;100844;-30
2023/01/27 06:41:06;;;;;;;1.25;0.77;;;;;;;3.97;85.54;102901.50;5034235;28;97392;-30
2023/01/27 06:43:31;;;;;;;1.45;0.85;;;;;;;3.98;85.51;102903.28;5034282;28;96440;-28
2023/01/27 06:45:56;;;;;;;0.50;0.40;;;;;;;3.97;85.14;102914.91;5034412;27;96780;-30
2023/01/27 06:48:23;;;;;;;0.28;0.28;;;;;;;3.95;84.96;102906.88;5033600;28;99048;-30
2023/01/27 06:50:48;;;;;;;1.73;0.50;;;;;;;3.97;85.14;102917.59;5032397;28;98894;-29
2023/01/27 06:53:13;;;;;;;0.40;0.40;;;;;;;3.91;85.02;102909.53;5033661;27;96762;-28
2023/01/27 06:55:40;;;;;;;0.77;0.60;;;;;;;3.92;85.02;102916.72;5034576;27;96806;-28
2023/01/27 06:58:15;;;;;;;0.47;0.47;;;;;;;3.94;85.24;102914.94;5037214;27;97885;-28
2023/01/27 07:00:41;;;;;;;0.60;0.47;;;;;;;3.91;84.81;102928.31;5035417;28;98955;-28
2023/01/27 07:03:09;;;;;;;0.82;0.55;;;;;;;3.88;84.97;102926.53;5037374;28;96475;-28
2023/01/27 07:05:35;;;;;;;0.22;0.22;;;;;;;3.89;84.99;102919.41;5035919;28;96940;-28
2023/01/27 07:08:00;;;;;;;0.63;0.43;;;;;;;3.88;84.44;102921.16;5036818;27;98652;-29
2023/01/27 07:10:26;;;;;;;0.32;0.32;;;;;;;3.87;84.15;102919.41;5037362;28;97685;-29
2023/01/27 07:12:51;;;;;;;0.40;0.40;;;;;;;3.86;84.21;102924.75;5035832;28;96711;-28
2023/01/27 07:15:17;;;;;;;1.02;0.65;;;;;;;3.90;84.01;102921.19;5037248;27;96796;-28
2023/01/27 07:17:42;;;;;;;3.38;1.88;;;;;;;3.89;83.60;102931.00;5036382;27;97444;-29
2023/01/27 07:20:11;;;;;;;1.02;0.80;;;;;;;3.86;84.06;102924.75;5036859;28;97342;-28
2023/01/27 07:22:36;;;;;;;1.83;0.73;;;;;;;3.87;83.42;102937.28;5036578;27;96826;-30
2023/01/27 07:25:03;;;;;;;1.67;1.10;;;;;;;3.83;81.75;102928.31;5036685;27;96820;-29
2023/01/27 07:27:28;;;;;;;0.90;0.73;;;;;;;3.81;82.30;102924.75;5035150;28;101756;-28
2023/01/27 07:29:54;;;;;;;1.52;0.65;;;;;;;3.81;81.80;102931.03;5035904;28;97476;-29
2023/01/27 07:32:19;;;;;;;0.70;0.52;;;;;;;3.78;82.00;102920.28;5034803;27;96649;-33
2023/01/27 07:34:45;;;;;;;0.63;0.57;;;;;;;3.79;81.27;102922.09;5035530;27;96754;-29
2023/01/27 07:37:10;;;;;;;1.38;0.82;;;;;;;3.78;82.02;102931.00;5035183;28;97668;-29
2023/01/27 07:39:36;;;;;;;0.88;0.85;;;;;;;3.80;81.50;102925.66;5035950;28;99327;-29
2023/01/27 07:42:02;;;;;;;3.60;0.52;;;;;;;3.77;80.86;102923.88;5034525;28;96824;-29
2023/01/27 07:44:28;;;;;;;1.38;0.50;;;;;;;3.75;81.69;102928.31;5035075;28;96835;-28
2023/01/27 07:46:54;;;;;;;1.25;0.50;;;;;;;3.78;81.69;102940.84;5036418;28;97984;-29
2023/01/27 07:49:19;;;;;;;0.10;0.10;;;;;;;3.76;81.58;102943.50;5036167;28;96600;-29
2023/01/27 07:51:45;;;;;;;0.43;0.43;;;;;;;3.80;81.92;102968.53;5036652;27;96609;-29
2023/01/27 07:54:11;;;;;;;1.83;1.17;;;;;;;3.77;81.71;102957.81;5036349;27;96729;-29
2023/01/27 07:56:36;;;;;;;0.70;0.70;;;;;;;3.77;82.14;102958.72;5054176;27;101154;-29
2023/01/27 07:59:02;;;;;;;0.55;0.55;;;;;;;3.77;81.50;102964.06;5056678;27;97970;-29
2023/01/27 08:01:27;;;;;;;0.13;0.13;;;;;;;3.80;81.90;102968.53;5056837;27;96626;-28
2023/01/27 08:03:53;;;;;;;0.93;0.50;;;;;;;3.79;82.05;102970.34;5056900;27;96732;-28
2023/01/27 08:06:18;;;;;;;0.57;0.43;;;;;;;3.80;82.51;102973.91;5055537;27;100696;-28
2023/01/27 08:08:43;;;;;;;0.55;0.15;;;;;;;3.79;82.88;102973.00;5056451;27;97639;-29
2023/01/27 08:11:12;;;;;;;1.33;0.65;;;;;;;3.75;82.54;102979.25;5056291;27;97327;-28
2023/01/27 08:13:38;;;;;;;0.17;0.17;;;;;;;3.78;82.91;102981.94;5054968;27;96948;-29
2023/01/27 08:16:07;;;;;;;1.40;0.77;;;;;;;3.78;82.66;102984.59;5056131;27;97271;-29
2023/01/27 08:18:33;;;;;;;0.73;0.70;;;;;;;3.76;82.01;102996.22;5055959;27;98173;-29
2023/01/27 08:21:00;;;;;;;0.25;0.25;;;;;;;3.77;82.37;102995.34;5054957;27;96945;-29
2023/01/27 08:23:26;;;;;;;1.45;1.00;;;;;;;3.75;82.25;102987.28;5055019;27;96853;-28
2023/01/27 08:25:53;;;;;;;2.42;1.02;;;;;;;3.76;82.00;102989.06;5055818;27;99121;-29
2023/01/27 08:28:20;;;;;;;0.65;0.63;;;;;;;3.77;82.21;102995.34;5054528;27;101026;-30
2023/01/27 08:30:45;;;;;;;0.75;0.28;;;;;;;3.76;81.27;102996.22;5054148;27;96663;-29
2023/01/27 08:33:11;;;;;;;0.52;0.52;;;;;;;3.75;81.13;102989.97;5056315;27;96819;-29
2023/01/27 08:35:38;;;;;;;1.42;0.85;;;;;;;3.76;81.83;102975.66;5054324;27;100992;-29
2023/01/27 08:38:04;;;;;;;0.73;0.50;;;;;;;3.78;80.99;102984.59;5054290;27;100851;-29
2023/01/27 08:40:30;;;;;;;0.98;0.52;;;;;;;3.79;81.75;102990.84;5054624;27;96585;-29
2023/01/27 08:42:55;;;;;;;0.57;0.57;;;;;;;3.79;81.51;102986.41;5054774;27;96809;-28
2023/01/27 08:45:20;;;;;;;0.68;0.60;;;;;;;3.79;81.57;102983.72;5055785;27;97866;-28
2023/01/27 08:47:46;;;;;;;1.23;0.70;;;;;;;3.83;81.83;102988.19;5055962;27;99129;-29
2023/01/27 08:50:11;;;;;;;0.47;0.40;;;;;;;3.82;81.51;102996.25;5054582;27;96548;-29
2023/01/27 08:52:37;;;;;;;0.65;0.47;;;;;;;3.87;81.87;102998.94;5055661;27;96973;-30
2023/01/27 08:55:02;;;;;;;0.50;0.40;;;;;;;3.89;82.45;102997.16;5054702;27;99551;-28
2023/01/27 08:57:31;;;;;;;0.70;0.43;;;;;;;3.88;82.14;102998.91;5055552;27;98712;-29
2023/01/27 08:59:56;;;;;;;0.43;0.28;;;;;;;3.89;81.81;103007.88;5055725;27;96505;-28
2023/01/27 09:02:23;;;;;;;0.47;0.47;;;;;;;3.90;82.37;103012.31;5054366;27;96896;-29
2023/01/27 09:04:48;;;;;;;1.13;0.73;;;;;;;3.91;82.53;103019.47;5055475;27;97878;-29
2023/01/27 09:07:14;;;;;;;0.55;0.50;;;;;;;3.91;81.79;103003.38;5055505;27;97891;-28
2023/01/27 09:09:39;;;;;;;0.50;0.50;;;;;;;3.94;82.21;103000.72;5055628;27;96637;-29
2023/01/27 09:12:05;;;;;;;0.15;0.13;;;;;;;3.97;81.69;103006.06;5055671;27;96785;-29
2023/01/27 09:14:30;;;;;;;0.82;0.52;;;;;;;4.01;81.88;103006.09;5055339;27;97893;-29
2023/01/27 09:16:55;;;;;;;0.60;0.45;;;;;;;4.02;81.52;103004.28;5055429;27;98161;-29
2023/01/27 09:19:21;;;;;;;0.43;0.43;;;;;;;4.03;81.89;102993.56;5053824;27;96564;-30
2023/01/27 09:21:46;;;;;;;0.75;0.32;;;;;;;4.11;81.16;103001.63;5055576;27;96769;-29
2023/01/27 09:24:16;;;;;;;0.70;0.50;;;;;;;4.17;81.42;102998.03;5054358;27;108872;-29
2023/01/27 09:26:41;;;;;;;1.13;0.77;;;;;;;4.19;80.93;103004.28;5055189;27;97844;-29
2023/01/27 09:29:07;;;;;;;0.30;0.28;;;;;;;4.23;80.55;103008.78;5055203;27;96714;-28
2023/01/27 09:31:32;;;;;;;0.73;0.52;;;;;;;4.24;80.06;103006.09;5055149;27;96812;-29
2023/01/27 09:33:57;;;;;;;1.75;0.50;;;;;;;4.22;80.31;102999.84;5054745;27;105562;-30
2023/01/27 09:36:23;;;;;;;0.20;0.20;;;;;;;4.26;80.41;102998.03;5055043;27;98952;-31
2023/01/27 09:38:55;;;;;;;0.85;0.65;;;;;;;4.32;80.18;103005.19;5053785;27;96559;-28
2023/01/27 09:41:48;;;;;;;0.52;0.17;;;;;;;4.42;80.25;103004.28;5053863;27;96835;-29
2023/01/27 09:44:38;;;;;;;0.50;0.38;;;;;;;4.49;79.01;103008.75;5054564;27;97705;-29
2023/01/27 09:47:13;;;;;;;0.80;0.63;;;;;;;4.63;79.77;103009.63;5054947;27;97909;-29
2023/01/27 09:49:58;;;;;;;0.32;0.30;;;;;;;4.72;78.20;103014.09;5055021;27;97565;-28
2023/01/27 09:52:42;;;;;;;0.10;0.10;;;;;;;4.92;79.22;103005.97;5054024;27;96664;-28
2023/01/27 09:55:20;;;;;;;0.35;0.15;;;;;;;5.07;78.20;103005.00;5053307;27;101031;-28
2023/01/27 09:58:08;;;;;;;0.90;0.63;;;;;;;5.33;77.84;103000.41;5053175;27;100878;-29
2023/01/27 10:00:46;;;;;;;0.00;0.00;;;;;;;5.53;77.22;103000.31;5054898;27;96521;-28
2023/01/27 10:03:11;;;;;;;0.22;0.20;;;;;;;5.78;77.08;103002.84;5055130;27;96806;-29
2023/01/27 10:06:06;;;;;;;0.13;0.13;;;;;;;5.91;76.72;102996.50;5054999;27;97055;-29
2023/01/27 10:08:37;;;;;;;0.10;0.10;;;;;;;6.09;75.61;102999.97;5029751;27;97853;-29
2023/01/27 10:11:27;;;;;;;0.63;0.23;;;;;;;6.30;74.47;103002.47;5054565;27;96610;-28
2023/01/27 10:14:06;;;;;;;0.50;0.38;;;;;;;6.39;75.74;102993.44;5054645;27;96852;-29
2023/01/27 10:16:55;;;;;;;0.10;0.10;;;;;;;6.59;74.44;102993.22;5054555;27;97642;-29
2023/01/27 10:19:33;;;;;;;0.30;0.30;;;;;;;6.71;73.27;103006.56;5052961;27;100757;-29
2023/01/27 10:22:26;;;;;;;0.47;0.22;;;;;;;6.93;72.72;102998.22;5054692;27;96424;-29
2023/01/27 10:25:04;;;;;;;0.15;0.13;;;;;;;7.13;72.54;103006.97;5042379;27;96843;-29
2023/01/27 10:27:35;;;;;;;0.20;0.10;;;;;;;7.21;72.66;103005.06;5054320;27;99832;-28
2023/01/27 10:30:07;;;;;;;0.73;0.28;;;;;;;7.32;71.05;103014.84;5054283;27;100862;-29
2023/01/27 10:32:41;;;;;;;0.95;0.57;;;;;;;7.27;70.54;103005.91;5058195;27;96563;-29
2023/01/27 10:35:25;;;;;;;1.45;0.40;;;;;;;7.26;72.10;103006.81;5056707;27;96627;-28
2023/01/27 10:38:05;;;;;;;0.40;0.20;;;;;;;7.28;72.76;103005.88;5055815;27;101065;-28
2023/01/27 10:40:30;;;;;;;0.95;0.63;;;;;;;7.36;71.11;103011.16;5056353;27;100997;-28
2023/01/27 10:43:14;;;;;;;1.80;0.50;;;;;;;7.50;71.36;103009.19;5057970;27;97661;-29
2023/01/27 10:45:51;;;;;;;0.40;0.35;;;;;;;7.52;71.27;103003.78;5056239;27;97137;-29
2023/01/27 10:48:34;;;;;;;0.17;0.17;;;;;;;7.51;70.23;103008.28;5056270;27;100764;-28
2023/01/27 10:51:03;;;;;;;0.55;0.30;;;;;;;7.69;69.21;103004.41;5056002;27;101115;-29
2023/01/27 10:53:49;;;;;;;0.32;0.28;;;;;;;7.78;69.72;102996.19;5056400;27;96467;-28
2023/01/27 10:56:26;;;;;;;0.82;0.40;;;;;;;7.86;69.23;102999.69;5056670;27;96816;-29
2023/01/27 10:59:13;;;;;;;0.43;0.40;;;;;;;7.74;69.71;103001.66;5057921;27;96969;-29
2023/01/27 11:01:50;;;;;;;0.75;0.52;;;;;;;7.43;70.82;102997.56;5055992;27;100855;-28
2023/01/27 11:04:33;;;;;;;1.08;0.43;;;;;;;7.26;71.00;103009.50;5055812;27;96690;-29
2023/01/27 11:06:59;;;;;;;4.30;1.10;;;;;;;7.07;71.60;103011.53;5056250;27;96716;-28
2023/01/27 11:09:28;;;;;;;1.50;0.82;;;;;;;6.91;72.88;103008.13;5055718;27;100732;-29
2023/01/27 11:11:59;;;;;;;0.63;0.40;;;;;;;6.71;72.22;103001.16;5055697;27;101113;-29
2023/01/27 11:14:31;;;;;;;1.00;0.43;;;;;;;6.50;74.00;102999.59;5056262;27;96581;-30
2023/01/27 11:17:12;;;;;;;0.28;0.28;;;;;;;6.34;73.91;103000.63;5055656;27;96782;-29
2023/01/27 11:20:01;;;;;;;0.40;0.20;;;;;;;6.25;73.76;103000.75;5055794;27;98867;-29
2023/01/27 11:22:35;;;;;;;2.00;0.57;;;;;;;6.19;74.39;102988.22;5055640;27;101041;-28
2023/01/27 11:25:22;;;;;;;0.65;0.45;;;;;;;6.12;75.16;102995.44;5055359;27;96651;-29
2023/01/27 11:28:08;;;;;;;0.15;0.15;;;;;;;5.93;74.89;102992.00;5057414;27;96497;-29
2023/01/27 11:30:56;;;;;;;0.47;0.40;;;;;;;5.84;75.31;102985.75;5054829;27;100917;-28
2023/01/27 11:33:28;;;;;;;1.00;0.60;;;;;;;5.85;75.24;102995.63;5057153;27;98053;-29
2023/01/27 11:35:54;;;;;;;0.30;0.22;;;;;;;5.76;75.45;102985.81;5055755;27;96659;-28
2023/01/27 11:38:21;;;;;;;0.43;0.20;;;;;;;5.74;74.90;102993.94;5056929;27;96988;-29
2023/01/27 11:40:50;;;;;;;0.13;0.13;;;;;;;5.62;74.60;102993.09;5055246;27;98857;-28
2023/01/27 11:43:19;;;;;;;0.10;0.10;;;;;;;5.51;75.32;102987.78;5056102;27;97844;-28
2023/01/27 11:45:47;;;;;;;0.57;0.55;;;;;;;5.54;75.69;102994.03;5055632;27;96679;-29
2023/01/27 11:48:17;;;;;;;1.80;0.57;;;;;;;5.48;75.69;102983.34;5057046;27;96475;-29
2023/01/27 11:50:43;;;;;;;0.45;0.40;;;;;;;5.43;76.28;102985.13;5054982;27;101221;-28
2023/01/27 11:53:15;;;;;;;0.50;0.50;;;;;;;5.37;75.49;102981.59;5053935;27;100807;-29
2023/01/27 11:55:45;;;;;;;0.50;0.38;;;;;;;5.32;76.13;102979.81;5056331;27;97167;-29
2023/01/27 11:58:19;;;;;;;0.32;0.30;;;;;;;5.25;75.34;102978.06;5055235;27;96610;-28
2023/01/27 12:00:58;;;;;;;5.15;1.50;;;;;;;5.26;76.44;102984.34;5054805;27;101021;-28
2023/01/27 12:03:48;;;;;;;6.65;0.40;;;;;;;5.21;76.03;102975.41;5056253;27;97975;-29
2023/01/27 12:06:29;;;;;;;0.70;0.47;;;;;;;5.16;76.61;102978.13;5055299;27;96693;-28
2023/01/27 12:08:55;;;;;;;0.65;0.50;;;;;;;5.15;76.17;102973.66;5055372;27;96539;-28